createdAt,value
2019-05-12T00:03:08.430Z,99776.55
2019-05-12T00:07:12.873Z,99781.82
2019-05-12T00:11:17.952Z,99786.64
2019-05-12T00:15:22.336Z,99780.50
2019-05-12T00:19:28.508Z,99787.55
2019-05-12T00:23:34.248Z,99780.50
2019-05-12T00:27:38.886Z,99791.52
2019-05-12T00:31:43.214Z,99793.70
2019-05-12T00:35:48.311Z,99787.56
2019-05-12T00:39:52.744Z,99795.48
2019-05-12T00:43:58.237Z,99780.51
2019-05-12T00:48:02.661Z,99779.23
2019-05-12T00:52:08.043Z,99773.96
2019-05-12T00:56:12.326Z,99779.25
2019-05-12T01:00:17.847Z,99785.89
2019-05-12T01:04:22.273Z,99782.81
2019-05-12T01:08:28.052Z,99790.77
2019-05-12T01:12:32.418Z,99790.77
2019-05-12T01:16:38.530Z,99789.86
2019-05-12T01:20:42.657Z,99787.27
2019-05-12T01:24:48.322Z,99792.55
2019-05-12T01:28:52.726Z,99792.55
2019-05-12T01:32:58.192Z,99806.64
2019-05-12T01:37:20.402Z,99812.34
2019-05-12T01:41:24.655Z,99812.34
2019-05-12T01:45:29.129Z,99809.28
2019-05-12T01:49:33.399Z,99811.02
2019-05-12T01:53:38.000Z,99811.02
2019-05-12T01:57:42.325Z,99821.58
2019-05-12T02:01:48.652Z,99828.59
2019-05-12T02:05:54.541Z,99838.28
2019-05-12T02:09:58.819Z,99852.79
2019-05-12T02:14:05.239Z,99865.54
2019-05-12T02:18:09.493Z,99865.54
2019-05-12T02:22:13.728Z,99859.84
2019-05-12T02:26:18.895Z,99868.59
2019-05-12T02:30:23.526Z,99865.09
2019-05-12T02:34:27.781Z,99880.05
2019-05-12T02:38:33.388Z,99890.16
2019-05-12T02:42:38.069Z,99888.81
2019-05-12T02:46:44.692Z,99896.73
2019-05-12T02:50:48.305Z,99895.86
2019-05-12T02:54:59.568Z,99894.09
2019-05-12T02:59:01.101Z,99897.59
2019-05-12T03:03:08.240Z,99891.00
2019-05-12T03:07:15.255Z,99898.05
2019-05-12T03:11:20.837Z,99897.62
2019-05-12T03:15:25.333Z,99905.52
2019-05-12T03:19:29.579Z,99898.50
2019-05-12T03:23:35.226Z,99912.13
2019-05-12T03:27:39.709Z,99909.93
2019-05-12T03:31:48.838Z,99913.89
2019-05-12T03:35:53.346Z,99921.39
2019-05-12T03:39:55.940Z,99927.09
2019-05-12T03:44:00.211Z,99936.33
2019-05-12T03:48:04.537Z,99936.33
2019-05-12T03:52:08.690Z,99941.61
2019-05-12T03:56:15.083Z,99953.05
2019-05-12T04:00:19.696Z,99951.27
2019-05-12T04:04:24.534Z,99949.53
2019-05-12T04:08:28.793Z,99953.50
2019-05-12T04:12:34.651Z,99957.00
2019-05-12T04:16:39.252Z,99953.05
2019-05-12T04:20:45.253Z,99960.97
2019-05-12T04:24:49.744Z,99963.16
2019-05-12T04:28:54.943Z,99966.25
2019-05-12T04:32:59.379Z,99960.97
2019-05-12T04:37:04.527Z,99962.70
2019-05-12T04:41:08.958Z,99964.93
2019-05-12T04:45:15.583Z,99964.90
2019-05-12T04:49:19.310Z,99966.67
2019-05-12T04:53:25.165Z,99959.62
2019-05-12T04:57:29.716Z,99975.88
2019-05-12T05:01:34.933Z,99982.91
2019-05-12T05:05:39.458Z,99986.41
2019-05-12T05:09:44.359Z,99990.83
2019-05-12T05:13:48.682Z,99998.72
2019-05-12T05:17:54.489Z,100009.29
2019-05-12T05:21:58.979Z,100004.88
2019-05-12T05:26:03.412Z,100009.29
2019-05-12T05:30:08.203Z,100015.44
2019-05-12T05:34:14.644Z,100019.86
2019-05-12T05:38:20.777Z,100008.38
2019-05-12T05:42:30.666Z,100015.02
2019-05-12T05:46:30.475Z,100021.57
2019-05-12T05:50:34.752Z,100031.65
2019-05-12T05:54:40.155Z,100033.36
2019-05-12T05:58:47.192Z,100040.78
2019-05-12T06:02:50.596Z,100051.77
2019-05-12T06:06:55.997Z,100054.85
2019-05-12T06:11:00.401Z,100049.11
2019-05-12T06:15:08.662Z,100062.34
2019-05-12T06:19:13.892Z,100060.61
2019-05-12T06:23:17.801Z,100069.00
2019-05-12T06:27:24.144Z,100072.53
2019-05-12T06:31:29.842Z,100074.30
2019-05-12T06:35:37.289Z,100068.09
2019-05-12T06:39:40.054Z,100065.84
2019-05-12T06:43:45.388Z,100063.59
2019-05-12T06:47:51.703Z,100070.58
2019-05-12T06:52:01.808Z,100064.27
2019-05-12T06:56:04.276Z,100071.72
2019-05-12T07:00:08.858Z,100074.77
2019-05-12T07:04:14.156Z,100084.89
2019-05-12T07:08:26.637Z,100083.57
2019-05-12T07:12:32.581Z,100094.16
2019-05-12T07:16:30.555Z,100092.38
2019-05-12T07:20:38.779Z,100084.78
2019-05-12T07:24:46.737Z,100098.31
2019-05-12T07:28:46.823Z,100109.33
2019-05-12T07:32:59.282Z,100112.39
2019-05-12T07:36:58.679Z,100116.76
2019-05-12T07:41:08.951Z,100123.80
2019-05-12T07:45:11.430Z,100125.54
2019-05-12T07:49:16.124Z,100128.18
2019-05-12T07:53:20.385Z,100133.47
2019-05-12T07:57:24.643Z,100140.06
2019-05-12T08:01:29.128Z,100146.64
2019-05-12T08:05:33.916Z,100140.44
2019-05-12T08:09:38.379Z,100147.92
2019-05-12T08:13:43.893Z,100162.78
2019-05-12T08:17:49.312Z,100167.57
2019-05-12T08:21:54.418Z,100161.28
2019-05-12T08:26:03.722Z,100164.19
2019-05-12T08:30:06.254Z,100163.66
2019-05-12T08:34:10.647Z,100164.94
2019-05-12T08:38:14.929Z,100165.68
2019-05-12T08:42:19.201Z,100176.60
2019-05-12T08:46:24.367Z,100184.38
2019-05-12T08:50:31.402Z,100185.98
2019-05-12T08:54:39.718Z,100195.59
2019-05-12T08:58:50.452Z,100195.48
2019-05-12T09:02:50.528Z,100185.52
2019-05-12T09:06:56.390Z,100182.69
2019-05-12T09:10:59.295Z,100183.91
2019-05-12T09:15:04.796Z,100185.64
2019-05-12T09:19:10.323Z,100200.17
2019-05-12T09:23:15.941Z,100205.14
2019-05-12T09:27:21.406Z,100218.39
2019-05-12T09:31:29.532Z,100234.77
2019-05-12T09:35:34.784Z,100236.59
2019-05-12T09:39:42.636Z,100239.42
2019-05-12T09:43:46.373Z,100233.73
2019-05-12T09:47:49.649Z,100238.16
2019-05-12T09:51:54.462Z,100249.31
2019-05-12T09:55:58.793Z,100257.98
2019-05-12T10:00:04.439Z,100264.80
2019-05-12T10:04:10.349Z,100264.11
2019-05-12T10:08:14.938Z,100268.25
2019-05-12T10:12:19.212Z,100269.25
2019-05-12T10:16:24.136Z,100275.13
2019-05-12T10:20:29.238Z,100278.34
2019-05-12T10:24:41.575Z,100289.62
2019-05-12T10:28:43.692Z,100302.97
2019-05-12T10:32:46.623Z,100303.58
2019-05-12T10:36:53.708Z,100301.92
2019-05-12T10:40:57.943Z,100308.73
2019-05-12T10:45:04.204Z,100317.31
2019-05-12T10:49:08.218Z,100321.00
2019-05-12T10:53:15.913Z,100331.31
2019-05-12T10:57:18.516Z,100344.66
2019-05-12T11:01:24.363Z,100350.94
2019-05-12T11:05:28.701Z,100362.52
2019-05-12T11:09:34.525Z,100364.79
2019-05-12T11:13:40.338Z,100381.19
2019-05-12T11:18:02.576Z,100396.76
2019-05-12T11:22:07.036Z,100390.67
2019-05-12T11:26:11.262Z,100412.38
2019-05-12T11:30:17.341Z,100408.03
2019-05-12T11:34:22.189Z,100418.59
2019-05-12T11:38:26.449Z,100430.55
2019-05-12T11:42:30.701Z,100444.66
2019-05-12T11:46:36.380Z,100450.39
2019-05-12T11:50:47.807Z,100449.96
2019-05-12T11:54:51.170Z,100464.52
2019-05-12T11:58:54.109Z,100483.47
2019-05-12T12:03:03.654Z,100494.02
2019-05-12T12:07:04.855Z,100496.18
2019-05-12T12:11:10.663Z,100500.56
2019-05-12T12:15:20.385Z,100506.70
2019-05-12T12:19:26.190Z,100510.63
2019-05-12T12:23:27.476Z,100507.91
2019-05-12T12:27:31.782Z,100503.89
2019-05-12T12:31:50.249Z,100510.90
2019-05-12T12:35:56.752Z,100510.37
2019-05-12T12:40:00.563Z,100512.56
2019-05-12T12:44:04.803Z,100528.23
2019-05-12T12:48:09.083Z,100542.70
2019-05-12T12:52:13.901Z,100521.45
2019-05-12T12:56:27.694Z,100521.45
2019-05-12T13:00:32.228Z,100531.97
2019-05-12T13:04:34.148Z,100525.66
2019-05-12T13:08:38.397Z,100525.66
2019-05-12T13:12:43.710Z,100537.03
2019-05-12T13:16:49.382Z,100548.87
2019-05-12T13:20:57.623Z,100556.34
2019-05-12T13:25:04.443Z,100556.25
2019-05-12T13:29:06.718Z,100562.40
2019-05-12T13:33:15.091Z,100570.38
2019-05-12T13:37:19.438Z,100566.82
2019-05-12T13:41:23.030Z,100597.12
2019-05-12T13:45:27.301Z,100581.16
2019-05-12T13:49:36.201Z,100587.80
2019-05-12T13:53:40.499Z,100595.69
2019-05-12T13:57:52.304Z,100599.95
2019-05-12T14:01:49.558Z,100598.16
2019-05-12T14:05:55.259Z,100608.55
2019-05-12T14:09:59.680Z,100613.77
2019-05-12T14:14:11.474Z,100622.59
2019-05-12T14:18:10.491Z,100630.48
2019-05-12T14:22:21.315Z,100629.58
2019-05-12T14:26:24.128Z,100632.20
2019-05-12T14:30:28.275Z,100635.73
2019-05-12T14:34:33.963Z,100640.53
2019-05-12T14:38:38.292Z,100643.10
2019-05-12T14:42:44.224Z,100654.06
2019-05-12T14:46:50.598Z,100653.59
2019-05-12T14:50:54.580Z,100656.64
2019-05-12T14:54:58.866Z,100658.40
2019-05-12T14:59:03.577Z,100652.66
2019-05-12T15:03:13.160Z,100659.28
2019-05-12T15:07:15.334Z,100657.99
2019-05-12T15:11:19.772Z,100664.97
2019-05-12T15:15:24.398Z,100673.73
2019-05-12T15:19:29.895Z,100691.69
2019-05-12T15:23:37.204Z,100695.12
2019-05-12T15:27:45.230Z,100707.45
2019-05-12T15:31:53.116Z,100706.54
2019-05-12T15:35:54.453Z,100701.60
2019-05-12T15:39:58.128Z,100711.56
2019-05-12T15:44:03.432Z,100711.50
2019-05-12T15:48:08.405Z,100710.59
2019-05-12T15:52:14.221Z,100710.19
2019-05-12T15:56:23.051Z,100710.98
2019-05-12T16:00:24.827Z,100699.01
2019-05-12T16:04:34.667Z,100702.05
2019-05-12T16:08:35.100Z,100702.14
2019-05-12T16:12:39.331Z,100713.99
2019-05-12T16:16:46.811Z,100717.41
2019-05-12T16:20:49.585Z,100726.26
2019-05-12T16:24:54.256Z,100736.33
2019-05-12T16:29:05.271Z,100743.25
2019-05-12T16:33:04.522Z,100755.52
2019-05-12T16:37:08.774Z,100762.48
2019-05-12T16:41:14.221Z,100770.34
2019-05-12T16:45:20.041Z,100776.86
2019-05-12T16:49:32.969Z,100782.95
2019-05-12T16:53:30.522Z,100799.66
2019-05-12T16:57:34.781Z,100806.67
2019-05-12T17:01:39.006Z,100813.66
2019-05-12T17:05:43.560Z,100828.98
2019-05-12T17:09:47.841Z,100827.57
2019-05-12T17:13:56.847Z,100834.22
2019-05-12T17:18:01.586Z,100844.28
2019-05-12T17:22:04.455Z,100844.69
2019-05-12T17:26:09.213Z,100853.06
2019-05-12T17:30:13.983Z,100847.72
2019-05-12T17:34:18.185Z,100841.88
2019-05-12T17:38:25.144Z,100854.16
2019-05-12T17:42:28.434Z,100848.05
2019-05-12T17:46:38.079Z,100857.64
2019-05-12T17:50:40.533Z,100858.07
2019-05-12T17:54:45.001Z,100865.46
2019-05-12T17:58:49.304Z,100870.80
2019-05-12T18:02:56.211Z,100869.70
2019-05-12T18:07:06.069Z,100873.50
2019-05-12T18:11:11.543Z,100876.87
2019-05-12T18:15:14.721Z,100875.77
2019-05-12T18:19:19.628Z,100876.89
2019-05-12T18:23:26.177Z,100885.19
2019-05-12T18:27:34.935Z,100899.58
2019-05-12T18:31:36.790Z,100894.13
2019-05-12T18:35:41.141Z,100894.96
2019-05-12T18:39:45.602Z,100902.85
2019-05-12T18:43:49.908Z,100910.59
2019-05-12T18:47:54.164Z,100917.17
2019-05-12T18:51:58.634Z,100929.84
2019-05-12T18:56:04.611Z,100929.36
2019-05-12T19:00:15.836Z,100932.47
2019-05-12T19:04:20.149Z,100941.28
2019-05-12T19:08:32.940Z,100939.48
2019-05-12T19:12:37.248Z,100955.39
2019-05-12T19:16:43.256Z,100955.39
2019-05-12T19:20:48.224Z,100959.86
2019-05-12T19:24:58.316Z,100956.87
2019-05-12T19:28:58.713Z,100958.14
2019-05-12T19:33:06.567Z,100949.34
2019-05-12T19:37:10.750Z,100946.66
2019-05-12T19:41:15.083Z,100944.91
2019-05-12T19:45:21.618Z,100945.35
2019-05-12T19:49:28.134Z,100949.81
2019-05-12T19:53:33.218Z,100955.52
2019-05-12T19:57:37.528Z,100965.13
2019-05-12T20:01:44.374Z,100966.39
2019-05-12T20:05:47.918Z,100970.73
2019-05-12T20:09:55.973Z,100987.77
2019-05-12T20:13:58.237Z,100990.75
2019-05-12T20:18:04.317Z,100996.05
2019-05-12T20:22:08.466Z,101004.38
2019-05-12T20:26:14.539Z,100999.91
2019-05-12T20:30:21.098Z,101002.48
2019-05-12T20:34:25.133Z,101008.55
2019-05-12T20:38:34.241Z,101001.53
2019-05-12T20:42:42.208Z,101005.43
2019-05-12T20:46:43.268Z,101001.00
2019-05-12T20:50:47.709Z,100996.27
2019-05-12T20:54:57.816Z,100989.34
2019-05-12T20:58:57.922Z,100990.70
2019-05-12T21:03:04.243Z,100996.36
2019-05-12T21:07:08.193Z,100999.91
2019-05-12T21:11:13.504Z,101004.20
2019-05-12T21:15:20.758Z,100999.42
2019-05-12T21:19:24.209Z,101007.80
2019-05-12T21:23:29.802Z,101013.05
2019-05-12T21:27:33.991Z,101017.84
2019-05-12T21:31:38.243Z,101018.33
2019-05-12T21:35:45.449Z,101016.17
2019-05-12T21:39:50.990Z,101016.26
2019-05-12T21:49:06.689Z,101015.30
2019-05-12T21:53:04.681Z,101020.03
2019-05-12T21:57:10.694Z,101014.69
2019-05-12T22:05:55.586Z,101001.58
2019-05-12T22:09:59.993Z,100999.30
2019-05-12T22:14:04.773Z,101001.05
2019-05-12T22:18:08.952Z,100998.85
2019-05-12T22:22:13.672Z,100998.85
2019-05-12T22:26:17.858Z,100992.72
2019-05-12T22:30:24.075Z,100999.73
2019-05-12T22:34:37.379Z,101002.84
2019-05-12T22:38:34.261Z,100993.59
2019-05-12T22:42:38.487Z,100998.50
2019-05-12T22:46:43.595Z,100987.98
2019-05-12T22:50:47.901Z,100992.80
2019-05-12T22:54:53.739Z,100992.02
2019-05-12T22:58:59.991Z,100990.27
2019-05-12T23:03:11.822Z,100996.84
2019-05-12T23:07:10.064Z,100999.91
2019-05-12T23:11:14.578Z,101004.30
2019-05-12T23:15:18.986Z,101012.23
2019-05-12T23:19:23.596Z,101017.48
2019-05-12T23:23:27.981Z,101014.03
2019-05-12T23:27:33.338Z,101014.51
2019-05-12T23:31:37.820Z,101018.02
2019-05-12T23:35:44.215Z,101017.65
2019-05-12T23:39:48.173Z,101003.11
2019-05-12T23:43:53.763Z,101006.61
2019-05-12T23:47:58.114Z,101010.64
2019-05-12T23:52:03.778Z,101011.56
2019-05-12T23:56:08.618Z,101014.27
